THY79K LTFM-KSFO
Flight info
| Callsign | THY79K |
|---|---|
| Flight time | N/A |
| Altitude | 36000 |
| Route | TUDBU Q26 UPAMA TIXIP DEMOP BABKO KOLOB REPKU MAMIP MORIG/N0500F380 65N000E/M085F380 68N010W 70N020W 73N040W 73N060W MEDPA/N0493F400 71N080W 69N090W 65N100W 59N110W YZU WASEN EPH/N0475F410 BRUKK/N0473F400 LMT/N0481F410 J65 RBL MRRLO BDEGA4 |
| Aircraft | A359/H-SDE2E3GHIJ3J4J5LM1ORWXY/LB1D1 |
Departure
| Time | N/A |
|---|---|
| Airport | İstanbul Airport (LTFM) |
Arrival
| Time | 2026-05-04 03:07 |
|---|---|
| Airport | San Francisco International Airport (KSFO) |
| Time | Latitude | Longitude | Altitude | Speed | Heading |
|---|---|---|---|---|---|
| 2026-05-04 01:30 | 49.12245 | -118.55560 | 39871 ft | 512 kts | 200° |
| 2026-05-04 01:30 | 49.05500 | -118.59039 | 39876 ft | 511 kts | 200° |
| 2026-05-04 01:31 | 48.98769 | -118.62500 | 39872 ft | 511 kts | 200° |
| 2026-05-04 01:31 | 48.92029 | -118.65955 | 39873 ft | 511 kts | 200° |
| 2026-05-04 01:32 | 48.85284 | -118.69400 | 39882 ft | 512 kts | 200° |
| 2026-05-04 01:32 | 48.78587 | -118.72812 | 39880 ft | 510 kts | 200° |
| 2026-05-04 01:33 | 48.71852 | -118.76231 | 39879 ft | 509 kts | 200° |
| 2026-05-04 01:33 | 48.65124 | -118.79640 | 39879 ft | 509 kts | 200° |
| 2026-05-04 01:34 | 48.58399 | -118.83038 | 39880 ft | 510 kts | 199° |
| 2026-05-04 01:34 | 48.51718 | -118.86405 | 39864 ft | 508 kts | 199° |
| 2026-05-04 01:35 | 48.45005 | -118.89776 | 39873 ft | 508 kts | 199° |
| 2026-05-04 01:35 | 48.38287 | -118.93140 | 39867 ft | 509 kts | 199° |
| 2026-05-04 01:36 | 48.31555 | -118.96505 | 39866 ft | 509 kts | 199° |
| 2026-05-04 01:36 | 48.24834 | -118.99857 | 39862 ft | 508 kts | 199° |
| 2026-05-04 01:37 | 48.18117 | -119.03193 | 39854 ft | 508 kts | 199° |
| 2026-05-04 01:37 | 48.11448 | -119.06495 | 39855 ft | 508 kts | 199° |
| 2026-05-04 01:38 | 48.04711 | -119.09824 | 39853 ft | 509 kts | 199° |
| 2026-05-04 01:38 | 47.97986 | -119.13137 | 39859 ft | 509 kts | 199° |
| 2026-05-04 01:39 | 47.91264 | -119.16440 | 39840 ft | 508 kts | 199° |
| 2026-05-04 01:39 | 47.84561 | -119.19725 | 39852 ft | 510 kts | 199° |
| 2026-05-04 01:40 | 47.77816 | -119.23023 | 39855 ft | 510 kts | 199° |
| 2026-05-04 01:40 | 47.71072 | -119.26308 | 39863 ft | 510 kts | 199° |
| 2026-05-04 01:41 | 47.64331 | -119.29584 | 39859 ft | 509 kts | 199° |
| 2026-05-04 01:41 | 47.57643 | -119.32827 | 39861 ft | 509 kts | 198° |
| 2026-05-04 01:42 | 47.50898 | -119.36087 | 39864 ft | 510 kts | 198° |
| 2026-05-04 01:42 | 47.44145 | -119.39343 | 39870 ft | 510 kts | 198° |
| 2026-05-04 01:43 | 47.37373 | -119.42414 | 40092 ft | 508 kts | 193° |
| 2026-05-04 01:43 | 47.33922 | -119.43586 | 40329 ft | 507 kts | 192° |
| 2026-05-04 01:43 | 47.30473 | -119.44687 | 40509 ft | 506 kts | 192° |
| 2026-05-04 01:43 | 47.27023 | -119.45747 | 40651 ft | 507 kts | 191° |
| 2026-05-04 01:44 | 47.23557 | -119.46795 | 40803 ft | 507 kts | 191° |
| 2026-05-04 01:44 | 47.16602 | -119.48887 | 40876 ft | 514 kts | 191° |
| 2026-05-04 01:45 | 47.09579 | -119.51010 | 40848 ft | 516 kts | 191° |
| 2026-05-04 01:45 | 46.99064 | -119.54194 | 40845 ft | 516 kts | 191° |
| 2026-05-04 01:46 | 46.92033 | -119.56318 | 40849 ft | 516 kts | 191° |
| 2026-05-04 01:46 | 46.85003 | -119.58436 | 40840 ft | 515 kts | 191° |
| 2026-05-04 01:47 | 46.77973 | -119.60548 | 40841 ft | 515 kts | 191° |
| 2026-05-04 01:47 | 46.70960 | -119.62648 | 40837 ft | 515 kts | 191° |
| 2026-05-04 01:48 | 46.63931 | -119.64748 | 40835 ft | 514 kts | 191° |
| 2026-05-04 01:48 | 46.56978 | -119.66821 | 40837 ft | 513 kts | 191° |
| 2026-05-04 01:49 | 46.49992 | -119.68897 | 40834 ft | 512 kts | 191° |
| 2026-05-04 01:49 | 46.43001 | -119.70969 | 40835 ft | 512 kts | 191° |
| 2026-05-04 01:50 | 46.36015 | -119.73034 | 40835 ft | 511 kts | 191° |
| 2026-05-04 01:50 | 46.29044 | -119.75090 | 40838 ft | 510 kts | 191° |
| 2026-05-04 01:51 | 46.22077 | -119.77140 | 40835 ft | 510 kts | 191° |
| 2026-05-04 01:51 | 46.15255 | -119.80011 | 40846 ft | 510 kts | 198° |
| 2026-05-04 01:52 | 46.08604 | -119.83390 | 40837 ft | 509 kts | 200° |
| 2026-05-04 01:52 | 46.01933 | -119.86870 | 40840 ft | 509 kts | 199° |
| 2026-05-04 01:53 | 45.95265 | -119.90330 | 40837 ft | 509 kts | 199° |
| 2026-05-04 01:53 | 45.88590 | -119.93766 | 40845 ft | 509 kts | 199° |
| 2026-05-04 01:54 | 45.81924 | -119.97181 | 40834 ft | 508 kts | 199° |
| 2026-05-04 01:54 | 45.75304 | -120.00562 | 40829 ft | 508 kts | 199° |
| 2026-05-04 01:55 | 45.68642 | -120.03958 | 40834 ft | 508 kts | 199° |
| 2026-05-04 01:55 | 45.61983 | -120.07344 | 40849 ft | 507 kts | 199° |
| 2026-05-04 01:56 | 45.55347 | -120.10709 | 40848 ft | 505 kts | 199° |
| 2026-05-04 01:56 | 45.48725 | -120.14060 | 40843 ft | 504 kts | 199° |
| 2026-05-04 01:57 | 45.42104 | -120.17401 | 40856 ft | 504 kts | 199° |
| 2026-05-04 01:57 | 45.35530 | -120.20710 | 40873 ft | 504 kts | 199° |
| 2026-05-04 01:58 | 45.28923 | -120.24028 | 40864 ft | 502 kts | 199° |
| 2026-05-04 01:58 | 45.22329 | -120.27331 | 40863 ft | 502 kts | 199° |
| 2026-05-04 01:59 | 45.15782 | -120.30602 | 40868 ft | 501 kts | 199° |
| 2026-05-04 01:59 | 45.09207 | -120.33880 | 40883 ft | 501 kts | 199° |
| 2026-05-04 02:00 | 45.02618 | -120.37156 | 40880 ft | 502 kts | 199° |
| 2026-05-04 02:00 | 44.96024 | -120.40428 | 40871 ft | 502 kts | 199° |
| 2026-05-04 02:01 | 44.89429 | -120.43692 | 40881 ft | 502 kts | 199° |
| 2026-05-04 02:01 | 44.82827 | -120.46950 | 40889 ft | 502 kts | 199° |
| 2026-05-04 02:02 | 44.76229 | -120.50199 | 40883 ft | 502 kts | 199° |
| 2026-05-04 02:02 | 44.69636 | -120.53438 | 40880 ft | 502 kts | 199° |
| 2026-05-04 02:03 | 44.63082 | -120.56650 | 40884 ft | 502 kts | 199° |
| 2026-05-04 02:03 | 44.56479 | -120.59878 | 40884 ft | 502 kts | 199° |
| 2026-05-04 02:04 | 44.49878 | -120.63096 | 40887 ft | 502 kts | 199° |
| 2026-05-04 02:04 | 44.43276 | -120.66309 | 40879 ft | 502 kts | 199° |
| 2026-05-04 02:05 | 44.36663 | -120.69519 | 40883 ft | 502 kts | 199° |
| 2026-05-04 02:05 | 44.30059 | -120.72716 | 40884 ft | 502 kts | 199° |
| 2026-05-04 02:06 | 44.23506 | -120.75882 | 40883 ft | 501 kts | 199° |
| 2026-05-04 02:06 | 44.16919 | -120.79056 | 40881 ft | 501 kts | 199° |
| 2026-05-04 02:07 | 44.11432 | -120.81695 | 40882 ft | 501 kts | 199° |
| 2026-05-04 02:07 | 44.04834 | -120.84861 | 40884 ft | 501 kts | 199° |
| 2026-05-04 02:08 | 43.98247 | -120.88014 | 40884 ft | 500 kts | 199° |
| 2026-05-04 02:08 | 43.91694 | -120.91144 | 40888 ft | 500 kts | 198° |
| 2026-05-04 02:09 | 43.85112 | -120.94281 | 40899 ft | 500 kts | 198° |
| 2026-05-04 02:09 | 43.78532 | -120.97409 | 40891 ft | 499 kts | 198° |
| 2026-05-04 02:10 | 43.71953 | -121.00529 | 40897 ft | 499 kts | 198° |
| 2026-05-04 02:10 | 43.65388 | -121.03635 | 40897 ft | 499 kts | 198° |
| 2026-05-04 02:11 | 43.58821 | -121.06735 | 40899 ft | 499 kts | 198° |
| 2026-05-04 02:11 | 43.52284 | -121.09814 | 40879 ft | 499 kts | 198° |
| 2026-05-04 02:12 | 43.45718 | -121.12900 | 40899 ft | 499 kts | 198° |
| 2026-05-04 02:12 | 43.39142 | -121.15983 | 40891 ft | 499 kts | 198° |
| 2026-05-04 02:13 | 43.32571 | -121.19055 | 40886 ft | 499 kts | 198° |
| 2026-05-04 02:13 | 43.25993 | -121.22128 | 40889 ft | 499 kts | 198° |
| 2026-05-04 02:14 | 43.19406 | -121.25196 | 40897 ft | 499 kts | 198° |
| 2026-05-04 02:14 | 43.12828 | -121.28251 | 40892 ft | 499 kts | 198° |
| 2026-05-04 02:15 | 43.06238 | -121.31304 | 40884 ft | 498 kts | 198° |
| 2026-05-04 02:15 | 42.99721 | -121.34316 | 40894 ft | 496 kts | 198° |
| 2026-05-04 02:16 | 42.93179 | -121.37334 | 40880 ft | 496 kts | 198° |
| 2026-05-04 02:16 | 42.86637 | -121.40346 | 40892 ft | 496 kts | 198° |
| 2026-05-04 02:17 | 42.80080 | -121.43358 | 40890 ft | 497 kts | 198° |
| 2026-05-04 02:17 | 42.73523 | -121.46363 | 40889 ft | 497 kts | 198° |
| 2026-05-04 02:18 | 42.66970 | -121.49360 | 40887 ft | 497 kts | 198° |
| 2026-05-04 02:18 | 42.60397 | -121.52360 | 40898 ft | 498 kts | 198° |
| 2026-05-04 02:19 | 42.53865 | -121.55333 | 40886 ft | 498 kts | 198° |
| 2026-05-04 02:19 | 42.47293 | -121.58318 | 40899 ft | 498 kts | 198° |
| 2026-05-04 02:20 | 42.40722 | -121.61297 | 40895 ft | 498 kts | 198° |
| 2026-05-04 02:20 | 42.34143 | -121.64272 | 40894 ft | 498 kts | 198° |
| 2026-05-04 02:21 | 42.27566 | -121.67239 | 40893 ft | 498 kts | 198° |
| 2026-05-04 02:21 | 42.20995 | -121.70199 | 40909 ft | 498 kts | 198° |
| 2026-05-04 02:22 | 42.14406 | -121.72883 | 40964 ft | 498 kts | 191° |
| 2026-05-04 02:22 | 42.07621 | -121.74764 | 40966 ft | 498 kts | 190° |
| 2026-05-04 02:23 | 42.00813 | -121.76490 | 40955 ft | 498 kts | 190° |
| 2026-05-04 02:23 | 41.93989 | -121.78198 | 40933 ft | 498 kts | 190° |
| 2026-05-04 02:24 | 41.87201 | -121.79909 | 40934 ft | 498 kts | 190° |
| 2026-05-04 02:24 | 41.80391 | -121.81632 | 40922 ft | 498 kts | 190° |
| 2026-05-04 02:25 | 41.73569 | -121.83358 | 40916 ft | 498 kts | 190° |
| 2026-05-04 02:25 | 41.66753 | -121.85076 | 40933 ft | 498 kts | 190° |
| 2026-05-04 02:26 | 41.59949 | -121.86787 | 40930 ft | 497 kts | 190° |
| 2026-05-04 02:26 | 41.53133 | -121.88497 | 40919 ft | 497 kts | 190° |
| 2026-05-04 02:27 | 41.46317 | -121.90205 | 40916 ft | 497 kts | 190° |
| 2026-05-04 02:27 | 41.39589 | -121.91887 | 40914 ft | 494 kts | 190° |
| 2026-05-04 02:28 | 41.32824 | -121.93576 | 40921 ft | 494 kts | 190° |
| 2026-05-04 02:28 | 41.26069 | -121.95257 | 40920 ft | 494 kts | 190° |
| 2026-05-04 02:29 | 41.19334 | -121.96930 | 40911 ft | 491 kts | 189° |
| 2026-05-04 02:29 | 41.12595 | -121.98600 | 40916 ft | 491 kts | 190° |
| 2026-05-04 02:30 | 41.05919 | -122.00252 | 40935 ft | 492 kts | 190° |
| 2026-05-04 02:30 | 40.99195 | -122.01912 | 40931 ft | 490 kts | 189° |
| 2026-05-04 02:31 | 40.92483 | -122.03565 | 40936 ft | 490 kts | 189° |
| 2026-05-04 02:31 | 40.85764 | -122.05216 | 40943 ft | 490 kts | 190° |
| 2026-05-04 02:32 | 40.79104 | -122.06850 | 40937 ft | 490 kts | 190° |
| 2026-05-04 02:32 | 40.72407 | -122.08490 | 40945 ft | 490 kts | 190° |
| 2026-05-04 02:33 | 40.65704 | -122.10127 | 40946 ft | 490 kts | 190° |
| 2026-05-04 02:33 | 40.59019 | -122.11757 | 40953 ft | 487 kts | 190° |
| 2026-05-04 02:34 | 40.52362 | -122.13376 | 40952 ft | 486 kts | 190° |
| 2026-05-04 02:34 | 40.45707 | -122.14992 | 40952 ft | 486 kts | 190° |
| 2026-05-04 02:35 | 40.39062 | -122.16603 | 40952 ft | 485 kts | 190° |
| 2026-05-04 02:35 | 40.32463 | -122.18198 | 40963 ft | 485 kts | 190° |
| 2026-05-04 02:36 | 40.25793 | -122.19808 | 40968 ft | 487 kts | 190° |
| 2026-05-04 02:36 | 40.19112 | -122.21418 | 40971 ft | 488 kts | 191° |
| 2026-05-04 02:37 | 40.12419 | -122.23027 | 40967 ft | 489 kts | 191° |
| 2026-05-04 02:37 | 40.05775 | -122.24736 | 40959 ft | 489 kts | 193° |
| 2026-05-04 02:38 | 39.99127 | -122.26711 | 40958 ft | 489 kts | 193° |
| 2026-05-04 02:38 | 39.92475 | -122.28654 | 40955 ft | 489 kts | 193° |
| 2026-05-04 02:39 | 39.85827 | -122.30575 | 40947 ft | 489 kts | 192° |
| 2026-05-04 02:39 | 39.79171 | -122.32489 | 40947 ft | 488 kts | 193° |
| 2026-05-04 02:40 | 39.72544 | -122.34390 | 40944 ft | 487 kts | 193° |
| 2026-05-04 02:40 | 39.65960 | -122.36274 | 40946 ft | 487 kts | 193° |
| 2026-05-04 02:41 | 39.59337 | -122.38166 | 40939 ft | 487 kts | 193° |
| 2026-05-04 02:41 | 39.52726 | -122.40051 | 40937 ft | 485 kts | 193° |
| 2026-05-04 02:42 | 39.46131 | -122.41928 | 40930 ft | 485 kts | 193° |
| 2026-05-04 02:42 | 39.39543 | -122.43798 | 40927 ft | 484 kts | 193° |
| 2026-05-04 02:43 | 39.32961 | -122.45663 | 40722 ft | 483 kts | 193° |
| 2026-05-04 02:43 | 39.29686 | -122.46590 | 40443 ft | 480 kts | 193° |
| 2026-05-04 02:43 | 39.26454 | -122.47504 | 39826 ft | 480 kts | 193° |
| 2026-05-04 02:44 | 39.23181 | -122.48429 | 39079 ft | 483 kts | 193° |
| 2026-05-04 02:44 | 39.19891 | -122.49358 | 38339 ft | 484 kts | 192° |
| 2026-05-04 02:44 | 39.16603 | -122.50287 | 37607 ft | 484 kts | 191° |
| 2026-05-04 02:44 | 39.13311 | -122.51214 | 36936 ft | 482 kts | 191° |
| 2026-05-04 02:45 | 39.10032 | -122.52138 | 36248 ft | 482 kts | 190° |
| 2026-05-04 02:45 | 39.06753 | -122.53060 | 35548 ft | 482 kts | 189° |
| 2026-05-04 02:45 | 39.03467 | -122.53984 | 34853 ft | 483 kts | 188° |
| 2026-05-04 02:45 | 39.00198 | -122.54902 | 34323 ft | 479 kts | 188° |
| 2026-05-04 02:46 | 38.96955 | -122.55813 | 33764 ft | 476 kts | 187° |
| 2026-05-04 02:46 | 38.93734 | -122.56715 | 33185 ft | 471 kts | 187° |
| 2026-05-04 02:46 | 38.90544 | -122.57608 | 32773 ft | 464 kts | 187° |
| 2026-05-04 02:46 | 38.87401 | -122.58495 | 32230 ft | 460 kts | 187° |
| 2026-05-04 02:47 | 38.84288 | -122.59377 | 31702 ft | 457 kts | 187° |
| 2026-05-04 02:47 | 38.81229 | -122.60242 | 31174 ft | 456 kts | 187° |
| 2026-05-04 02:47 | 38.78056 | -122.61132 | 30846 ft | 476 kts | 187° |
| 2026-05-04 02:47 | 38.74791 | -122.62050 | 30706 ft | 479 kts | 187° |
| 2026-05-04 02:48 | 38.71542 | -122.62970 | 29872 ft | 480 kts | 186° |
| 2026-05-04 02:48 | 38.68225 | -122.63902 | 28840 ft | 500 kts | 186° |
| 2026-05-04 02:48 | 38.64770 | -122.64870 | 28692 ft | 512 kts | 187° |
| 2026-05-04 02:48 | 38.61322 | -122.65849 | 28199 ft | 504 kts | 187° |
| 2026-05-04 02:49 | 38.57900 | -122.66824 | 27227 ft | 504 kts | 187° |
| 2026-05-04 02:49 | 38.54477 | -122.67787 | 26517 ft | 500 kts | 187° |
| 2026-05-04 02:49 | 38.51095 | -122.68740 | 25883 ft | 494 kts | 187° |
| 2026-05-04 02:49 | 38.47763 | -122.69677 | 25282 ft | 487 kts | 187° |
| 2026-05-04 02:50 | 38.44476 | -122.70599 | 24696 ft | 480 kts | 187° |
| 2026-05-04 02:50 | 38.41232 | -122.71509 | 24114 ft | 474 kts | 187° |
| 2026-05-04 02:50 | 38.38021 | -122.72408 | 23543 ft | 469 kts | 187° |
| 2026-05-04 02:50 | 38.34844 | -122.73295 | 22911 ft | 465 kts | 187° |
| 2026-05-04 02:51 | 38.31698 | -122.74172 | 22349 ft | 460 kts | 188° |
| 2026-05-04 02:51 | 38.28593 | -122.75039 | 21785 ft | 452 kts | 188° |
| 2026-05-04 02:51 | 38.25538 | -122.75892 | 21233 ft | 446 kts | 188° |
| 2026-05-04 02:51 | 38.22495 | -122.76453 | 20692 ft | 438 kts | 177° |
| 2026-05-04 02:52 | 38.19514 | -122.76023 | 20156 ft | 428 kts | 165° |
| 2026-05-04 02:52 | 38.16625 | -122.75171 | 19639 ft | 425 kts | 163° |
| 2026-05-04 02:52 | 38.13770 | -122.74293 | 19121 ft | 423 kts | 164° |
| 2026-05-04 02:52 | 38.11353 | -122.73562 | 18685 ft | 421 kts | 165° |
| 2026-05-04 02:53 | 38.08504 | -122.72717 | 18145 ft | 418 kts | 165° |
| 2026-05-04 02:53 | 38.05682 | -122.71890 | 17607 ft | 415 kts | 166° |
| 2026-05-04 02:53 | 38.02878 | -122.71072 | 17087 ft | 412 kts | 166° |
| 2026-05-04 02:53 | 38.00103 | -122.70267 | 16588 ft | 408 kts | 166° |
| 2026-05-04 02:54 | 37.97332 | -122.69464 | 16091 ft | 405 kts | 166° |
| 2026-05-04 02:54 | 37.94594 | -122.68672 | 15598 ft | 402 kts | 166° |
| 2026-05-04 02:54 | 37.92788 | -122.68150 | 15273 ft | 400 kts | 166° |
| 2026-05-04 02:54 | 37.90147 | -122.67123 | 14782 ft | 395 kts | 154° |
| 2026-05-04 02:55 | 37.85119 | -122.62318 | 13648 ft | 387 kts | 138° |
| 2026-05-04 02:55 | 37.83082 | -122.60114 | 13133 ft | 384 kts | 139° |
| 2026-05-04 02:55 | 37.81054 | -122.57945 | 12680 ft | 380 kts | 139° |
| 2026-05-04 02:56 | 37.79715 | -122.56520 | 12385 ft | 378 kts | 139° |
| 2026-05-04 02:56 | 37.77708 | -122.54382 | 11950 ft | 376 kts | 139° |
| 2026-05-04 02:56 | 37.75711 | -122.52259 | 11510 ft | 374 kts | 139° |
| 2026-05-04 02:56 | 37.73719 | -122.50149 | 11260 ft | 373 kts | 139° |
| 2026-05-04 02:57 | 37.71732 | -122.48042 | 11057 ft | 371 kts | 139° |
| 2026-05-04 02:57 | 37.69762 | -122.45942 | 11003 ft | 370 kts | 139° |
| 2026-05-04 02:57 | 37.67797 | -122.43849 | 10996 ft | 369 kts | 139° |
| 2026-05-04 02:57 | 37.65848 | -122.41776 | 10820 ft | 360 kts | 139° |
| 2026-05-04 02:58 | 37.63973 | -122.39783 | 10559 ft | 345 kts | 139° |
| 2026-05-04 02:58 | 37.62156 | -122.37895 | 10313 ft | 331 kts | 143° |
| 2026-05-04 02:58 | 37.60233 | -122.36417 | 10089 ft | 317 kts | 152° |
| 2026-05-04 02:58 | 37.58323 | -122.35164 | 9828 ft | 298 kts | 153° |
| 2026-05-04 02:59 | 37.56558 | -122.34024 | 9288 ft | 283 kts | 153° |
| 2026-05-04 02:59 | 37.54826 | -122.32903 | 8616 ft | 275 kts | 153° |
| 2026-05-04 02:59 | 37.53145 | -122.31804 | 7901 ft | 269 kts | 152° |
| 2026-05-04 02:59 | 37.51713 | -122.30335 | 7150 ft | 266 kts | 130° |
| 2026-05-04 03:00 | 37.50670 | -122.28421 | 6444 ft | 264 kts | 122° |
| 2026-05-04 03:00 | 37.49812 | -122.26395 | 5736 ft | 260 kts | 118° |
| 2026-05-04 03:00 | 37.49026 | -122.24359 | 4970 ft | 258 kts | 118° |
| 2026-05-04 03:00 | 37.48229 | -122.22299 | 4110 ft | 263 kts | 118° |
| 2026-05-04 03:01 | 37.47505 | -122.20201 | 3437 ft | 269 kts | 111° |
| 2026-05-04 03:01 | 37.47239 | -122.17867 | 3063 ft | 271 kts | 86° |
| 2026-05-04 03:01 | 37.47901 | -122.15667 | 2996 ft | 271 kts | 55° |
| 2026-05-04 03:01 | 37.49300 | -122.14100 | 3004 ft | 271 kts | 23° |
| 2026-05-04 03:02 | 37.51097 | -122.13752 | 2994 ft | 254 kts | 348° |
| 2026-05-04 03:02 | 37.52563 | -122.14687 | 2994 ft | 226 kts | 309° |
| 2026-05-04 03:02 | 37.53314 | -122.16297 | 2995 ft | 205 kts | 289° |
| 2026-05-04 03:02 | 37.53863 | -122.17884 | 3000 ft | 189 kts | 293° |
| 2026-05-04 03:03 | 37.54454 | -122.19282 | 2987 ft | 172 kts | 296° |
| 2026-05-04 03:03 | 37.55009 | -122.20564 | 2777 ft | 166 kts | 294° |
| 2026-05-04 03:03 | 37.55540 | -122.21844 | 2521 ft | 163 kts | 294° |
| 2026-05-04 03:03 | 37.56065 | -122.23095 | 2282 ft | 159 kts | 295° |
| 2026-05-04 03:04 | 37.56579 | -122.24318 | 2070 ft | 157 kts | 294° |
| 2026-05-04 03:04 | 37.57083 | -122.25523 | 1859 ft | 154 kts | 294° |
| 2026-05-04 03:04 | 37.57585 | -122.26718 | 1649 ft | 154 kts | 294° |
| 2026-05-04 03:04 | 37.58087 | -122.27915 | 1430 ft | 152 kts | 294° |
| 2026-05-04 03:05 | 37.58557 | -122.29032 | 1222 ft | 137 kts | 293° |
| 2026-05-04 03:05 | 37.58983 | -122.30046 | 1042 ft | 127 kts | 293° |
| 2026-05-04 03:05 | 37.59398 | -122.31041 | 878 ft | 129 kts | 293° |
| 2026-05-04 03:05 | 37.59816 | -122.32042 | 713 ft | 129 kts | 291° |
| 2026-05-04 03:06 | 37.60236 | -122.33042 | 534 ft | 129 kts | 292° |
| 2026-05-04 03:06 | 37.60653 | -122.34038 | 363 ft | 128 kts | 291° |
| 2026-05-04 03:06 | 37.61072 | -122.35030 | 214 ft | 129 kts | 292° |
| 2026-05-04 03:06 | 37.61481 | -122.36024 | 53 ft | 127 kts | 294° |
| 2026-05-04 03:07 | 37.61863 | -122.36949 | 28 ft | 99 kts | 298° |
| 2026-05-04 03:07 | 37.62097 | -122.37490 | 28 ft | 41 kts | 297° |
| 2026-05-04 03:07 | 37.62200 | -122.37753 | 28 ft | 32 kts | 291° |
| 2026-05-04 03:07 | 37.62224 | -122.38015 | 28 ft | 30 kts | 267° |
| 2026-05-04 03:08 | 37.62178 | -122.38194 | 28 ft | 11 kts | 219° |
| 2026-05-04 03:08 | 37.62125 | -122.38236 | 28 ft | 17 kts | 210° |
| 2026-05-04 03:08 | 37.61976 | -122.38242 | 28 ft | 19 kts | 118° |
| 2026-05-04 03:08 | 37.61915 | -122.38084 | 28 ft | 21 kts | 120° |
| 2026-05-04 03:09 | 37.61828 | -122.37966 | 28 ft | 16 kts | 166° |
| 2026-05-04 03:09 | 37.61694 | -122.37953 | 28 ft | 23 kts | 193° |
| 2026-05-04 03:09 | 37.61546 | -122.38042 | 28 ft | 24 kts | 208° |
| 2026-05-04 03:09 | 37.61393 | -122.38146 | 28 ft | 26 kts | 208° |
| 2026-05-04 03:10 | 37.61229 | -122.38257 | 28 ft | 27 kts | 208° |
| 2026-05-04 03:10 | 37.61057 | -122.38373 | 28 ft | 29 kts | 207° |
| 2026-05-04 03:10 | 37.60919 | -122.38545 | 28 ft | 28 kts | 258° |
| 2026-05-04 03:10 | 37.60979 | -122.38769 | 28 ft | 28 kts | 304° |
| 2026-05-04 03:11 | 37.61115 | -122.38861 | 28 ft | 17 kts | 328° |
| 2026-05-04 03:11 | 37.61151 | -122.38923 | 27 ft | 1 kts | 297° |
| 2026-05-04 03:11 | 37.61157 | -122.38938 | 28 ft | 4 kts | 297° |
| 2026-05-04 03:11 | 37.61159 | -122.38943 | 28 ft | 0 kts | 297° |